createdAt,value
2023-05-02T00:02:20.014Z,11.45
2023-05-02T00:04:46.984Z,11.52
2023-05-02T00:07:13.948Z,11.52
2023-05-02T00:09:41.007Z,11.52
2023-05-02T00:12:07.772Z,11.56
2023-05-02T00:14:35.080Z,11.53
2023-05-02T00:17:02.428Z,11.52
2023-05-02T00:19:29.394Z,11.52
2023-05-02T00:21:56.848Z,11.45
2023-05-02T00:24:23.884Z,11.45
2023-05-02T00:26:51.294Z,11.36
2023-05-02T00:29:18.732Z,11.34
2023-05-02T00:31:45.693Z,11.28
2023-05-02T00:34:12.691Z,11.21
2023-05-02T00:36:39.948Z,11.15
2023-05-02T00:39:08.314Z,11.15
2023-05-02T00:41:35.358Z,11.13
2023-05-02T00:44:02.698Z,11.07
2023-05-02T00:46:29.925Z,11.01
2023-05-02T00:48:57.217Z,10.95
2023-05-02T00:51:24.188Z,10.92
2023-05-02T00:53:51.246Z,10.88
2023-05-02T00:56:18.298Z,10.80
2023-05-02T00:58:47.245Z,10.79
2023-05-02T01:01:34.133Z,10.81
2023-05-02T01:04:28.916Z,10.82
2023-05-02T01:07:11.568Z,10.80
2023-05-02T01:10:17.963Z,10.82
2023-05-02T01:13:09.848Z,10.80
2023-05-02T01:15:40.848Z,10.77
2023-05-02T01:18:11.930Z,10.74
2023-05-02T01:20:46.564Z,10.73
2023-05-02T01:23:29.076Z,10.71
2023-05-02T01:26:11.414Z,10.73
2023-05-02T01:28:59.998Z,10.75
2023-05-02T01:31:40.766Z,10.76
2023-05-02T01:34:10.783Z,10.79
2023-05-02T01:36:50.480Z,10.79
2023-05-02T01:39:24.001Z,10.96
2023-05-02T01:41:53.621Z,10.89
2023-05-02T01:44:22.361Z,10.95
2023-05-02T01:46:52.085Z,10.92
2023-05-02T01:49:20.964Z,10.92
2023-05-02T01:51:50.865Z,10.91
2023-05-02T01:54:20.213Z,10.98
2023-05-02T01:56:49.371Z,10.97
2023-05-02T01:59:19.772Z,10.99
2023-05-02T02:01:48.449Z,11.00
2023-05-02T02:04:16.621Z,11.01
2023-05-02T02:06:48.491Z,11.03
2023-05-02T02:09:16.600Z,11.06
2023-05-02T02:11:49.423Z,11.08
2023-05-02T02:14:25.087Z,11.05
2023-05-02T02:16:56.253Z,11.06
2023-05-02T02:19:24.763Z,11.07
2023-05-02T02:21:54.497Z,11.06
2023-05-02T02:24:22.857Z,11.07
2023-05-02T02:26:49.625Z,11.10
2023-05-02T02:29:16.963Z,11.04
2023-05-02T02:31:43.964Z,11.07
2023-05-02T02:34:11.319Z,11.07
2023-05-02T02:37:05.061Z,11.07
2023-05-02T02:39:55.692Z,11.07
2023-05-02T02:42:32.350Z,11.05
2023-05-02T02:45:25.722Z,11.05
2023-05-02T02:48:12.497Z,11.09
2023-05-02T02:51:07.597Z,11.07
2023-05-02T02:54:25.513Z,11.07
2023-05-02T02:57:17.259Z,11.08
2023-05-02T02:59:53.977Z,11.08
2023-05-02T03:02:27.502Z,11.08
2023-05-02T03:04:56.276Z,11.10
2023-05-02T03:07:23.700Z,11.14
2023-05-02T03:09:51.155Z,11.12
2023-05-02T03:12:17.838Z,11.13
2023-05-02T03:14:45.414Z,11.13
2023-05-02T03:17:12.506Z,11.12
2023-05-02T03:19:39.557Z,11.13
2023-05-02T03:22:06.833Z,11.13
2023-05-02T03:24:33.540Z,11.18
2023-05-02T03:27:00.679Z,11.29
2023-05-02T03:29:28.647Z,11.20
2023-05-02T03:31:55.632Z,11.20
2023-05-02T03:34:22.487Z,11.19
2023-05-02T03:36:50.084Z,11.17
2023-05-02T03:39:17.001Z,11.17
2023-05-02T03:41:44.526Z,11.14
2023-05-02T03:44:11.354Z,11.15
2023-05-02T03:46:38.534Z,11.18
2023-05-02T03:49:05.368Z,11.18
2023-05-02T03:51:33.975Z,11.17
2023-05-02T03:54:02.795Z,11.15
2023-05-02T03:56:30.298Z,11.12
2023-05-02T03:58:57.902Z,11.13
2023-05-02T04:01:25.268Z,11.12
2023-05-02T04:03:52.792Z,11.15
2023-05-02T04:06:20.050Z,11.12
2023-05-02T04:08:46.894Z,11.14
2023-05-02T04:11:13.811Z,11.10
2023-05-02T04:13:40.756Z,11.12
2023-05-02T04:16:07.777Z,11.14
2023-05-02T04:18:34.766Z,11.12
2023-05-02T04:21:01.750Z,11.13
2023-05-02T04:23:28.577Z,11.13
2023-05-02T04:25:56.460Z,11.09
2023-05-02T04:28:23.996Z,11.08
2023-05-02T04:30:51.739Z,11.08
2023-05-02T04:33:19.288Z,11.05
2023-05-02T04:35:47.390Z,11.04
2023-05-02T04:38:14.617Z,10.98
2023-05-02T04:40:42.074Z,10.91
2023-05-02T04:43:09.094Z,10.88
2023-05-02T04:45:43.388Z,10.88
2023-05-02T04:48:10.543Z,10.83
2023-05-02T04:50:37.340Z,10.73
2023-05-02T04:53:04.325Z,10.66
2023-05-02T04:55:31.665Z,10.66
2023-05-02T04:57:58.515Z,10.69
2023-05-02T05:00:26.041Z,10.66
2023-05-02T05:02:57.069Z,10.77
2023-05-02T05:05:26.196Z,10.63
2023-05-02T05:07:53.057Z,10.53
2023-05-02T05:10:19.984Z,10.56
2023-05-02T05:12:47.189Z,10.63
2023-05-02T05:15:15.610Z,10.62
2023-05-02T05:17:42.656Z,10.62
2023-05-02T05:20:10.310Z,10.64
2023-05-02T05:22:41.434Z,10.62
2023-05-02T05:25:09.583Z,10.57
2023-05-02T05:27:37.562Z,10.58
2023-05-02T05:30:06.214Z,10.61
2023-05-02T05:32:34.059Z,10.63
2023-05-02T05:35:01.360Z,10.67
2023-05-02T05:37:28.774Z,10.67
2023-05-02T05:39:55.765Z,10.62
2023-05-02T05:42:22.946Z,10.62
2023-05-02T05:44:50.293Z,10.61
2023-05-02T05:47:22.305Z,10.60
2023-05-02T05:49:53.903Z,10.61
2023-05-02T05:52:20.863Z,10.57
2023-05-02T05:54:48.128Z,10.59
2023-05-02T05:57:15.626Z,10.59
2023-05-02T05:59:42.731Z,10.61
2023-05-02T06:02:09.728Z,10.65
2023-05-02T06:04:36.492Z,10.68
2023-05-02T06:07:03.705Z,10.69
2023-05-02T06:09:30.605Z,10.71
2023-05-02T06:11:57.784Z,10.73
2023-05-02T06:14:25.397Z,10.81
2023-05-02T06:16:52.135Z,10.86
2023-05-02T06:19:18.913Z,10.94
2023-05-02T06:21:46.512Z,10.96
2023-05-02T06:24:13.464Z,11.01
2023-05-02T06:26:40.866Z,11.02
2023-05-02T06:29:07.885Z,11.03
2023-05-02T06:31:35.287Z,11.07
2023-05-02T06:34:01.988Z,11.07
2023-05-02T06:36:30.151Z,11.06
2023-05-02T06:38:56.901Z,11.10
2023-05-02T06:41:23.739Z,11.13
2023-05-02T06:43:50.910Z,11.07
2023-05-02T06:46:18.856Z,11.06
2023-05-02T06:48:46.753Z,11.01
2023-05-02T06:51:14.981Z,10.95
2023-05-02T06:53:41.933Z,10.94
2023-05-02T06:56:10.026Z,10.98
2023-05-02T06:58:37.225Z,10.89
2023-05-02T07:01:04.113Z,10.88
2023-05-02T07:03:31.257Z,10.79
2023-05-02T07:05:58.120Z,10.70
2023-05-02T07:08:25.607Z,10.70
2023-05-02T07:10:52.648Z,10.69
2023-05-02T07:13:19.942Z,10.75
2023-05-02T07:15:47.034Z,10.77
2023-05-02T07:18:14.123Z,10.74
2023-05-02T07:20:42.324Z,10.75
2023-05-02T07:23:09.373Z,10.81
2023-05-02T07:25:37.666Z,10.85
2023-05-02T07:28:05.334Z,10.89
2023-05-02T07:30:32.143Z,10.95
2023-05-02T07:33:00.114Z,10.92
2023-05-02T07:35:27.009Z,10.92
2023-05-02T07:37:54.265Z,10.99
2023-05-02T07:40:21.272Z,11.06
2023-05-02T07:42:48.988Z,11.07
2023-05-02T07:45:16.395Z,11.07
2023-05-02T07:47:43.280Z,11.15
2023-05-02T07:50:10.913Z,11.14
2023-05-02T07:52:37.672Z,11.20
2023-05-02T07:55:05.131Z,11.25
2023-05-02T07:57:32.354Z,11.28
2023-05-02T07:59:59.947Z,11.31
2023-05-02T08:02:27.623Z,11.26
2023-05-02T08:04:54.855Z,11.27
2023-05-02T08:07:22.046Z,11.22
2023-05-02T08:09:49.050Z,11.12
2023-05-02T08:12:16.589Z,11.15
2023-05-02T08:14:43.502Z,11.14
2023-05-02T08:17:10.862Z,11.13
2023-05-02T08:19:37.638Z,11.18
2023-05-02T08:22:05.074Z,11.17
2023-05-02T08:24:32.247Z,11.14
2023-05-02T08:27:00.622Z,11.03
2023-05-02T08:29:27.533Z,11.01
2023-05-02T08:31:54.976Z,10.95
2023-05-02T08:34:22.117Z,10.99
2023-05-02T08:36:48.990Z,11.02
2023-05-02T08:39:17.112Z,10.99
2023-05-02T08:41:44.838Z,11.13
2023-05-02T08:44:12.296Z,11.20
2023-05-02T08:46:42.638Z,11.39
2023-05-02T08:49:15.719Z,11.58
2023-05-02T08:51:44.035Z,11.72
2023-05-02T08:54:11.495Z,11.75
2023-05-02T08:56:39.056Z,11.86
2023-05-02T08:59:06.722Z,11.87
2023-05-02T09:01:36.059Z,12.02
2023-05-02T09:04:03.485Z,11.88
2023-05-02T09:06:30.486Z,11.92
2023-05-02T09:09:00.517Z,11.98
2023-05-02T09:11:27.760Z,11.98
2023-05-02T09:13:56.050Z,12.09
2023-05-02T09:16:25.700Z,11.96
2023-05-02T09:18:54.882Z,12.04
2023-05-02T09:21:24.153Z,12.11
2023-05-02T09:24:01.322Z,12.26
2023-05-02T09:26:33.556Z,12.35
2023-05-02T09:29:09.121Z,12.25
2023-05-02T09:34:11.486Z,12.44
2023-05-02T09:36:44.216Z,12.54
2023-05-02T09:39:20.686Z,12.45
2023-05-02T09:41:50.077Z,12.46
2023-05-02T09:44:19.417Z,12.36
2023-05-02T09:47:02.253Z,12.56
2023-05-02T09:49:44.830Z,12.56
2023-05-02T09:52:21.647Z,12.64
2023-05-02T09:54:50.781Z,12.57
2023-05-02T09:57:17.786Z,12.48
2023-05-02T09:59:58.017Z,12.44
2023-05-02T10:02:26.113Z,12.42
2023-05-02T10:04:56.656Z,12.34
2023-05-02T10:07:23.538Z,12.26
2023-05-02T10:09:54.795Z,12.02
2023-05-02T10:12:26.608Z,11.86
2023-05-02T10:15:00.538Z,11.82
2023-05-02T10:17:31.037Z,11.88
2023-05-02T10:20:04.823Z,11.90
2023-05-02T10:22:34.327Z,11.99
2023-05-02T10:25:03.361Z,12.03
2023-05-02T10:27:31.740Z,11.96
2023-05-02T10:30:00.649Z,11.94
2023-05-02T10:32:33.297Z,11.92
2023-05-02T10:35:05.379Z,11.90
2023-05-02T10:37:34.490Z,11.91
2023-05-02T10:40:02.311Z,11.89
2023-05-02T10:42:30.669Z,11.87
2023-05-02T10:45:00.197Z,11.84
2023-05-02T10:47:27.732Z,11.93
2023-05-02T10:50:00.078Z,12.03
2023-05-02T10:52:29.743Z,12.07
2023-05-02T10:55:23.093Z,12.15
2023-05-02T10:58:08.901Z,12.18
2023-05-02T11:00:35.988Z,12.36
2023-05-02T11:03:03.550Z,12.58
2023-05-02T11:05:30.634Z,12.51
2023-05-02T11:08:22.306Z,12.70
2023-05-02T11:10:50.790Z,12.86
2023-05-02T11:13:50.949Z,13.05
2023-05-02T11:16:18.390Z,13.17
2023-05-02T11:19:01.244Z,13.38
2023-05-02T11:21:29.790Z,13.38
2023-05-02T11:24:34.741Z,13.37
2023-05-02T11:27:29.620Z,13.47
2023-05-02T11:30:06.637Z,13.79
2023-05-02T11:32:45.628Z,13.68
2023-05-02T11:35:22.856Z,13.56
2023-05-02T11:38:04.123Z,13.47
2023-05-02T11:40:32.403Z,13.18
2023-05-02T11:43:00.821Z,13.22
2023-05-02T11:45:36.201Z,13.23
2023-05-02T11:48:07.166Z,13.22
2023-05-02T11:50:46.704Z,13.55
2023-05-02T11:53:19.515Z,13.63
2023-05-02T11:55:55.119Z,13.52
2023-05-02T11:58:29.682Z,13.59
2023-05-02T12:00:57.292Z,13.88
2023-05-02T12:03:25.446Z,14.12
2023-05-02T12:05:52.853Z,13.97
2023-05-02T12:08:25.605Z,14.22
2023-05-02T12:10:53.899Z,14.19
2023-05-02T12:13:22.367Z,14.22
2023-05-02T12:15:52.288Z,14.20
2023-05-02T12:18:25.358Z,14.31
2023-05-02T12:20:53.371Z,14.19
2023-05-02T12:23:22.162Z,14.12
2023-05-02T12:25:49.284Z,14.23
2023-05-02T12:28:19.826Z,14.26
2023-05-02T12:30:49.740Z,14.31
2023-05-02T12:33:17.816Z,14.47
2023-05-02T12:35:48.376Z,14.71
2023-05-02T12:38:17.708Z,14.91
2023-05-02T12:40:52.512Z,15.04
2023-05-02T12:43:21.922Z,14.91
2023-05-02T12:45:50.918Z,14.84
2023-05-02T12:48:22.324Z,14.55
2023-05-02T12:50:50.313Z,14.62
2023-05-02T12:53:17.560Z,14.69
2023-05-02T12:55:46.944Z,14.80
2023-05-02T12:58:13.933Z,14.79
2023-05-02T13:00:44.727Z,14.72
2023-05-02T13:03:12.519Z,14.67
2023-05-02T13:05:39.595Z,14.68
2023-05-02T13:08:07.293Z,14.19
2023-05-02T13:10:34.382Z,14.19
2023-05-02T13:13:01.674Z,15.09
2023-05-02T13:15:29.069Z,15.45
2023-05-02T13:17:57.066Z,15.84
2023-05-02T13:20:24.167Z,16.21
2023-05-02T13:22:51.090Z,16.97
2023-05-02T13:25:18.042Z,17.30
2023-05-02T13:27:46.044Z,18.22
2023-05-02T13:30:13.480Z,18.69
2023-05-02T13:32:41.504Z,18.84
2023-05-02T13:35:09.086Z,19.32
2023-05-02T13:37:36.179Z,20.24
2023-05-02T13:40:05.061Z,20.82
2023-05-02T13:42:32.349Z,20.22
2023-05-02T13:44:59.643Z,20.36
2023-05-02T13:47:27.659Z,20.56
2023-05-02T13:49:54.505Z,20.99
2023-05-02T13:52:22.088Z,21.50
2023-05-02T13:54:49.099Z,20.97
2023-05-02T13:57:16.228Z,21.40
2023-05-02T13:59:43.024Z,21.22
2023-05-02T14:02:10.212Z,19.72
2023-05-02T14:04:38.477Z,19.82
2023-05-02T14:07:05.222Z,20.47
2023-05-02T14:09:32.131Z,20.68
2023-05-02T14:12:00.272Z,20.44
2023-05-02T14:14:27.970Z,21.38
2023-05-02T14:16:55.014Z,21.06
2023-05-02T14:19:21.999Z,19.84
2023-05-02T14:21:48.996Z,18.83
2023-05-02T14:24:16.615Z,18.23
2023-05-02T14:26:43.339Z,18.07
2023-05-02T14:29:11.349Z,19.30
2023-05-02T14:31:38.374Z,20.22
2023-05-02T14:34:07.514Z,20.50
2023-05-02T14:36:36.535Z,20.54
2023-05-02T14:39:03.644Z,21.57
2023-05-02T14:41:32.129Z,22.21
2023-05-02T14:43:58.830Z,22.02
2023-05-02T14:46:25.813Z,22.00
2023-05-02T14:48:52.752Z,22.09
2023-05-02T14:51:19.914Z,21.82
2023-05-02T14:53:48.501Z,22.51
2023-05-02T14:56:17.340Z,23.67
2023-05-02T14:58:44.439Z,23.09
2023-05-02T15:01:19.787Z,22.16
2023-05-02T15:04:04.318Z,21.43
2023-05-02T15:06:34.437Z,20.66
2023-05-02T15:09:01.993Z,21.49
2023-05-02T15:11:29.178Z,21.67
2023-05-02T15:13:58.445Z,21.06
2023-05-02T15:16:26.967Z,20.40
2023-05-02T15:18:54.452Z,20.10
2023-05-02T15:21:22.703Z,20.11
2023-05-02T15:23:50.129Z,20.91
2023-05-02T15:26:18.939Z,20.33
2023-05-02T15:28:46.499Z,19.96
2023-05-02T15:31:13.939Z,20.35
2023-05-02T15:33:41.371Z,19.49
2023-05-02T15:36:09.403Z,19.34
2023-05-02T15:38:39.425Z,19.54
2023-05-02T15:41:10.445Z,19.97
2023-05-02T15:43:38.189Z,20.38
2023-05-02T15:46:05.122Z,20.16
2023-05-02T15:48:33.728Z,19.35
2023-05-02T15:51:02.763Z,18.47
2023-05-02T15:53:30.041Z,18.17
2023-05-02T15:55:57.167Z,18.27
2023-05-02T15:58:24.102Z,18.49
2023-05-02T16:00:52.418Z,18.82
2023-05-02T16:03:20.204Z,18.38
2023-05-02T16:05:48.158Z,18.51
2023-05-02T16:08:15.219Z,18.58
2023-05-02T16:10:43.541Z,18.19
2023-05-02T16:13:10.751Z,17.80
2023-05-02T16:15:40.816Z,17.91
2023-05-02T16:18:08.460Z,17.92
2023-05-02T16:20:36.768Z,18.09
2023-05-02T16:23:04.363Z,18.20
2023-05-02T16:25:31.991Z,18.21
2023-05-02T16:27:58.900Z,18.68
2023-05-02T16:30:27.270Z,18.98
2023-05-02T16:32:54.977Z,18.93
2023-05-02T16:35:21.841Z,18.99
2023-05-02T16:37:49.528Z,18.82
2023-05-02T16:40:16.428Z,18.85
2023-05-02T16:42:46.232Z,18.87
2023-05-02T16:45:13.368Z,18.61
2023-05-02T16:47:41.465Z,18.45
2023-05-02T16:50:09.354Z,18.34
2023-05-02T16:52:38.178Z,18.01
2023-05-02T16:55:05.441Z,18.00
2023-05-02T16:57:32.810Z,17.94
2023-05-02T17:00:00.554Z,17.87
2023-05-02T17:02:28.672Z,17.77
2023-05-02T17:04:55.879Z,17.45
2023-05-02T17:07:26.464Z,17.29
2023-05-02T17:09:55.748Z,16.98
2023-05-02T17:12:23.337Z,16.73
2023-05-02T17:14:52.049Z,16.59
2023-05-02T17:17:23.882Z,16.23
2023-05-02T17:19:52.537Z,15.97
2023-05-02T17:22:19.770Z,15.76
2023-05-02T17:24:49.538Z,15.69
2023-05-02T17:27:16.717Z,15.44
2023-05-02T17:29:43.723Z,15.35
2023-05-02T17:32:11.313Z,15.23
2023-05-02T17:34:38.899Z,15.00
2023-05-02T17:37:07.418Z,14.90
2023-05-02T17:39:34.712Z,14.79
2023-05-02T17:42:01.781Z,14.71
2023-05-02T17:44:31.563Z,14.57
2023-05-02T17:46:58.641Z,14.49
2023-05-02T17:49:25.765Z,14.39
2023-05-02T17:51:53.331Z,14.25
2023-05-02T17:54:21.964Z,14.09
2023-05-02T17:56:50.689Z,13.98
2023-05-02T17:59:18.848Z,13.89
2023-05-02T18:01:45.863Z,13.84
2023-05-02T18:04:14.709Z,13.74
2023-05-02T18:06:41.807Z,13.60
2023-05-02T18:09:08.827Z,13.49
2023-05-02T18:11:36.601Z,13.39
2023-05-02T18:14:06.128Z,13.31
2023-05-02T18:16:34.413Z,13.23
2023-05-02T18:19:01.865Z,13.17
2023-05-02T18:21:29.050Z,13.08
2023-05-02T18:23:56.929Z,12.99
2023-05-02T18:26:23.909Z,12.91
2023-05-02T18:28:53.379Z,12.83
2023-05-02T18:31:21.383Z,12.80
2023-05-02T18:33:48.461Z,12.70
2023-05-02T18:36:20.520Z,12.59
2023-05-02T18:38:48.506Z,12.51
2023-05-02T18:41:15.260Z,12.45
2023-05-02T18:43:42.363Z,12.39
2023-05-02T18:46:09.549Z,12.32
2023-05-02T18:48:36.935Z,12.24
2023-05-02T18:51:06.442Z,12.17
2023-05-02T18:53:33.371Z,12.12
2023-05-02T18:56:00.671Z,12.11
2023-05-02T18:58:28.516Z,12.04
2023-05-02T19:00:55.593Z,12.00
2023-05-02T19:03:23.699Z,11.87
2023-05-02T19:05:51.437Z,11.77
2023-05-02T19:08:18.223Z,11.71
2023-05-02T19:10:52.264Z,11.64
2023-05-02T19:13:19.273Z,11.57
2023-05-02T19:15:47.139Z,11.53
2023-05-02T19:18:16.847Z,11.52
2023-05-02T19:20:44.258Z,11.41
2023-05-02T19:23:19.541Z,11.34
2023-05-02T19:25:57.781Z,11.29
2023-05-02T19:28:25.860Z,11.22
2023-05-02T19:30:58.614Z,11.17
2023-05-02T19:33:25.668Z,11.08
2023-05-02T19:35:54.296Z,11.03
2023-05-02T19:38:21.763Z,10.97
2023-05-02T19:40:49.547Z,10.93
2023-05-02T19:43:16.647Z,10.85
2023-05-02T19:45:43.452Z,10.80
2023-05-02T19:48:11.716Z,10.72
2023-05-02T19:50:39.493Z,10.69
2023-05-02T19:53:06.781Z,10.69
2023-05-02T19:55:33.868Z,10.64
2023-05-02T19:58:02.570Z,10.59
2023-05-02T20:00:29.252Z,10.55
2023-05-02T20:02:57.466Z,10.52
2023-05-02T20:05:25.236Z,10.49
2023-05-02T20:07:52.566Z,10.45
2023-05-02T20:10:19.328Z,10.42
2023-05-02T20:12:47.113Z,10.37
2023-05-02T20:15:14.553Z,10.34
2023-05-02T20:17:42.965Z,10.29
2023-05-02T20:20:11.451Z,10.21
2023-05-02T20:22:39.983Z,10.20
2023-05-02T20:25:10.513Z,10.16
2023-05-02T20:27:38.168Z,10.11
2023-05-02T20:30:06.445Z,10.06
2023-05-02T20:32:33.645Z,10.02
2023-05-02T20:35:01.143Z,9.93
2023-05-02T20:37:29.288Z,9.89
2023-05-02T20:39:56.600Z,9.83
2023-05-02T20:42:25.571Z,9.83
2023-05-02T20:45:00.043Z,9.82
2023-05-02T20:47:28.673Z,9.75
2023-05-02T20:49:56.980Z,9.74
2023-05-02T20:52:23.832Z,9.70
2023-05-02T20:54:58.154Z,9.66
2023-05-02T20:57:24.965Z,9.62
2023-05-02T20:59:52.545Z,9.58
2023-05-02T21:02:19.552Z,9.57
2023-05-02T21:04:46.640Z,9.53
2023-05-02T21:07:13.875Z,9.45
2023-05-02T21:09:40.956Z,9.42
2023-05-02T21:12:07.979Z,9.37
2023-05-02T21:14:35.091Z,9.34
2023-05-02T21:17:02.756Z,9.32
2023-05-02T21:19:33.057Z,9.33
2023-05-02T21:22:00.578Z,9.29
2023-05-02T21:24:28.041Z,9.25
2023-05-02T21:26:55.161Z,9.18
2023-05-02T21:29:22.027Z,9.17
2023-05-02T21:31:48.832Z,9.07
2023-05-02T21:34:15.936Z,9.03
2023-05-02T21:36:43.333Z,8.95
2023-05-02T21:39:10.314Z,8.94
2023-05-02T21:41:38.671Z,8.94
2023-05-02T21:44:06.045Z,8.89
2023-05-02T21:46:33.143Z,8.87
2023-05-02T21:49:00.042Z,8.86
2023-05-02T21:51:26.954Z,8.83
2023-05-02T21:53:53.989Z,8.76
2023-05-02T21:56:21.667Z,8.74
2023-05-02T21:58:51.376Z,8.68
2023-05-02T22:01:18.988Z,8.64
2023-05-02T22:03:46.429Z,8.59
2023-05-02T22:06:13.514Z,8.56
2023-05-02T22:08:41.259Z,8.49
2023-05-02T22:11:09.494Z,8.44
2023-05-02T22:13:37.072Z,8.39
2023-05-02T22:16:04.088Z,8.41
2023-05-02T22:18:31.066Z,8.38
2023-05-02T22:20:58.624Z,8.30
2023-05-02T22:23:25.501Z,8.29
2023-05-02T22:25:52.852Z,8.23
2023-05-02T22:28:21.354Z,8.14
2023-05-02T22:30:48.262Z,8.09
2023-05-02T22:33:15.260Z,8.09
2023-05-02T22:35:42.170Z,8.04
2023-05-02T22:38:09.282Z,7.99
2023-05-02T22:40:36.762Z,7.93
2023-05-02T22:43:03.887Z,7.91
2023-05-02T22:45:31.048Z,7.83
2023-05-02T22:47:58.385Z,7.78
2023-05-02T22:50:26.393Z,7.78
2023-05-02T22:52:57.278Z,7.82
2023-05-02T22:55:24.884Z,7.83
2023-05-02T22:57:52.033Z,7.73
2023-05-02T23:00:18.763Z,7.69
2023-05-02T23:02:46.116Z,7.66
2023-05-02T23:05:13.063Z,7.58
2023-05-02T23:07:40.345Z,7.55
2023-05-02T23:10:07.835Z,7.45
2023-05-02T23:12:35.007Z,7.41
2023-05-02T23:15:02.375Z,7.40
2023-05-02T23:17:30.550Z,7.38
2023-05-02T23:19:57.467Z,7.34
2023-05-02T23:22:24.547Z,7.33
2023-05-02T23:24:52.571Z,7.31
2023-05-02T23:27:19.282Z,7.26
2023-05-02T23:29:48.187Z,7.28
2023-05-02T23:32:16.147Z,7.26
2023-05-02T23:34:43.295Z,7.21
2023-05-02T23:37:11.465Z,7.15
2023-05-02T23:39:38.537Z,7.10
2023-05-02T23:42:06.530Z,7.04
2023-05-02T23:44:33.720Z,7.01
2023-05-02T23:47:00.892Z,6.96
2023-05-02T23:49:28.248Z,6.92
2023-05-02T23:51:55.510Z,6.88
2023-05-02T23:54:22.560Z,6.91
2023-05-02T23:56:50.470Z,6.91
2023-05-02T23:59:17.351Z,6.90
